createdAt,value
2018-09-11T00:00:24.023Z,87.60
2018-09-11T00:05:28.271Z,88.30
2018-09-11T00:10:32.461Z,87.90
2018-09-11T00:15:36.737Z,88.50
2018-09-11T00:20:40.893Z,88.00
2018-09-11T00:25:45.142Z,88.30
2018-09-11T00:30:49.401Z,88.70
2018-09-11T00:35:53.593Z,88.80
2018-09-11T00:40:57.896Z,89.20
2018-09-11T00:46:02.089Z,89.30
2018-09-11T00:51:06.279Z,90.00
2018-09-11T00:56:10.539Z,90.00
2018-09-11T01:01:14.743Z,90.00
2018-09-11T01:06:18.942Z,90.10
2018-09-11T01:11:23.151Z,90.00
2018-09-11T01:16:27.448Z,90.10
2018-09-11T01:21:31.604Z,89.90
2018-09-11T01:26:35.675Z,90.40
2018-09-11T01:31:39.852Z,90.00
2018-09-11T01:36:44.137Z,90.20
2018-09-11T01:41:48.751Z,90.40
2018-09-11T01:46:53.106Z,90.40
2018-09-11T01:51:57.285Z,90.40
2018-09-11T01:57:01.502Z,90.70
2018-09-11T02:02:05.828Z,90.60
2018-09-11T02:07:10.006Z,90.80
2018-09-11T02:12:14.240Z,91.00
2018-09-11T02:17:18.448Z,91.00
2018-09-11T02:22:22.697Z,91.10
2018-09-11T02:27:26.883Z,91.00
2018-09-11T02:32:31.063Z,90.90
2018-09-11T02:37:36.269Z,90.90
2018-09-11T02:42:40.631Z,91.70
2018-09-11T02:47:44.919Z,91.50
2018-09-11T02:52:49.328Z,91.20
2018-09-11T02:57:53.558Z,91.40
2018-09-11T03:02:57.825Z,91.20
2018-09-11T03:08:02.014Z,91.50
2018-09-11T03:13:06.476Z,91.10
2018-09-11T03:18:10.641Z,91.20
2018-09-11T03:23:14.836Z,91.30
2018-09-11T03:28:19.049Z,91.60
2018-09-11T03:33:23.252Z,91.70
2018-09-11T03:38:27.499Z,91.40
2018-09-11T03:43:31.717Z,91.60
2018-09-11T03:48:35.937Z,91.30
2018-09-11T03:53:40.103Z,91.30
2018-09-11T03:58:44.330Z,91.00
2018-09-11T04:03:48.546Z,91.60
2018-09-11T04:08:52.871Z,91.90
2018-09-11T04:13:57.144Z,91.70
2018-09-11T04:19:01.389Z,91.70
2018-09-11T04:24:06.174Z,91.80
2018-09-11T04:29:10.420Z,91.80
2018-09-11T04:34:14.681Z,91.90
2018-09-11T04:39:18.866Z,91.90
2018-09-11T04:44:23.047Z,92.40
2018-09-11T04:49:27.249Z,91.90
2018-09-11T04:54:31.429Z,92.20
2018-09-11T04:59:35.604Z,92.10
2018-09-11T05:04:39.829Z,91.80
2018-09-11T05:09:44.015Z,92.30
2018-09-11T05:14:48.218Z,92.60
2018-09-11T05:19:52.379Z,92.30
2018-09-11T05:24:56.852Z,92.40
2018-09-11T05:30:01.095Z,92.10
2018-09-11T05:35:05.503Z,92.30
2018-09-11T05:40:09.702Z,92.40
2018-09-11T05:45:13.895Z,92.30
2018-09-11T05:50:18.113Z,92.20
2018-09-11T05:55:22.514Z,92.60
2018-09-11T06:00:26.725Z,92.60
2018-09-11T06:05:30.947Z,92.60
2018-09-11T06:10:35.165Z,92.70
2018-09-11T06:15:39.483Z,92.60
2018-09-11T06:20:43.738Z,92.80
2018-09-11T06:25:47.958Z,92.40
2018-09-11T06:30:52.249Z,92.70
2018-09-11T06:35:56.466Z,92.50
2018-09-11T06:41:00.712Z,92.70
2018-09-11T06:46:05.038Z,92.20
2018-09-11T06:51:09.758Z,92.60
2018-09-11T06:56:13.931Z,92.40
2018-09-11T07:01:18.325Z,92.70
2018-09-11T07:06:22.672Z,92.50
2018-09-11T07:11:27.124Z,92.70
2018-09-11T07:16:31.435Z,92.40
2018-09-11T07:21:35.723Z,92.20
2018-09-11T07:26:40.036Z,92.30
2018-09-11T07:31:44.390Z,92.50
2018-09-11T07:36:48.615Z,92.30
2018-09-11T07:41:52.775Z,92.90
2018-09-11T07:46:56.941Z,92.30
2018-09-11T07:52:01.153Z,92.60
2018-09-11T07:57:05.368Z,92.80
2018-09-11T08:02:09.849Z,92.40
2018-09-11T08:07:14.073Z,92.60
2018-09-11T08:12:18.277Z,92.70
2018-09-11T08:17:22.604Z,92.10
2018-09-11T08:22:27.222Z,92.40
2018-09-11T08:27:31.435Z,92.00
2018-09-11T08:32:35.724Z,92.10
2018-09-11T08:37:46.744Z,91.40
2018-09-11T08:42:51.048Z,91.60
2018-09-11T08:47:55.495Z,91.60
2018-09-11T08:52:59.677Z,91.40
2018-09-11T08:58:03.886Z,90.90
2018-09-11T09:03:08.191Z,90.60
2018-09-11T09:08:12.410Z,90.10
2018-09-11T09:13:16.620Z,90.10
2018-09-11T09:18:20.892Z,88.90
2018-09-11T09:23:25.110Z,88.00
2018-09-11T09:28:29.279Z,88.20
2018-09-11T09:33:33.492Z,87.60
2018-09-11T09:38:37.708Z,86.10
2018-09-11T09:43:41.963Z,84.00
2018-09-11T09:48:46.194Z,86.00
2018-09-11T09:53:50.361Z,84.30
2018-09-11T09:58:54.515Z,85.00
2018-09-11T10:03:58.792Z,81.30
2018-09-11T10:09:03.046Z,82.70
2018-09-11T10:14:07.258Z,83.10
2018-09-11T10:19:11.466Z,81.60
2018-09-11T10:24:15.656Z,80.50
2018-09-11T10:29:19.844Z,78.50
2018-09-11T10:34:24.362Z,79.30
2018-09-11T10:39:28.618Z,79.80
2018-09-11T10:44:33.015Z,77.20
2018-09-11T10:49:37.461Z,75.00
2018-09-11T10:54:41.637Z,75.70
2018-09-11T10:59:45.849Z,75.10
2018-09-11T11:04:50.106Z,78.50
2018-09-11T11:09:54.323Z,76.90
2018-09-11T11:14:58.569Z,74.40
2018-09-11T11:20:03.043Z,72.60
2018-09-11T11:30:14.752Z,66.90
2018-09-11T11:35:19.139Z,67.60
2018-09-11T11:40:23.454Z,69.90
2018-09-11T11:45:27.692Z,72.00
2018-09-11T11:50:31.998Z,69.10
2018-09-11T11:55:36.393Z,69.50
2018-09-11T12:00:40.638Z,70.10
2018-09-11T12:05:44.833Z,66.70
2018-09-11T12:10:49.007Z,67.50
2018-09-11T12:15:53.167Z,67.20
2018-09-11T12:20:57.649Z,67.10
2018-09-11T12:26:01.911Z,69.70
2018-09-11T12:31:06.166Z,67.10
2018-09-11T12:36:10.405Z,66.90
2018-09-11T12:41:14.632Z,66.80
2018-09-11T12:46:19.057Z,66.70
2018-09-11T12:51:23.032Z,65.30
2018-09-11T12:56:27.302Z,62.80
2018-09-11T13:01:31.583Z,64.10
2018-09-11T13:06:35.953Z,63.20
2018-09-11T13:11:40.223Z,62.70
2018-09-11T13:16:44.446Z,63.10
2018-09-11T13:21:48.965Z,61.30
2018-09-11T13:26:53.133Z,61.30
2018-09-11T13:31:57.339Z,60.50
2018-09-11T13:37:01.581Z,62.10
2018-09-11T13:42:05.865Z,61.30
2018-09-11T13:47:10.152Z,60.10
2018-09-11T13:52:14.284Z,59.90
2018-09-11T13:57:18.502Z,61.20
2018-09-11T14:02:22.691Z,62.00
2018-09-11T14:07:27.336Z,60.00
2018-09-11T14:12:31.580Z,61.30
2018-09-11T14:17:35.834Z,60.10
2018-09-11T14:22:40.155Z,59.60
2018-09-11T14:27:44.377Z,61.20
2018-09-11T14:32:48.670Z,60.50
2018-09-11T14:37:52.895Z,60.40
2018-09-11T14:42:57.095Z,61.10
2018-09-11T14:48:01.363Z,61.20
2018-09-11T14:53:05.681Z,61.80
2018-09-11T14:58:09.870Z,62.00
2018-09-11T15:03:14.021Z,62.00
2018-09-11T15:08:18.855Z,63.60
2018-09-11T15:13:23.080Z,62.00
2018-09-11T15:18:27.410Z,61.80
2018-09-11T15:23:31.660Z,63.00
2018-09-11T15:28:35.835Z,62.30
2018-09-11T15:33:40.122Z,62.90
2018-09-11T15:38:44.398Z,63.40
2018-09-11T15:43:48.594Z,64.10
2018-09-11T15:48:52.802Z,62.50
2018-09-11T15:53:57.006Z,63.30
2018-09-11T15:59:01.185Z,62.30
2018-09-11T16:04:05.637Z,62.90
2018-09-11T16:09:12.363Z,63.40
2018-09-11T16:14:16.504Z,63.70
2018-09-11T16:19:20.653Z,63.90
2018-09-11T16:24:24.941Z,63.70
2018-09-11T16:29:29.212Z,63.30
2018-09-11T16:34:33.605Z,64.20
2018-09-11T16:39:37.899Z,64.70
2018-09-11T16:44:42.234Z,64.30
2018-09-11T16:49:46.549Z,65.50
2018-09-11T16:54:50.876Z,65.20
2018-09-11T16:59:55.243Z,66.10
2018-09-11T17:04:59.493Z,66.40
2018-09-11T17:10:03.872Z,67.40
2018-09-11T17:15:08.079Z,66.50
2018-09-11T17:20:12.294Z,67.30
2018-09-11T17:25:16.633Z,66.40
2018-09-11T17:30:20.834Z,67.30
2018-09-11T17:35:26.047Z,66.30
2018-09-11T17:40:30.330Z,65.60
2018-09-11T17:45:34.596Z,67.50
2018-09-11T17:50:38.860Z,66.80
2018-09-11T17:55:43.258Z,67.20
2018-09-11T18:00:48.296Z,67.40
2018-09-11T18:05:52.604Z,67.90
2018-09-11T18:10:57.461Z,68.50
2018-09-11T18:16:01.778Z,69.00
2018-09-11T18:21:05.959Z,69.20
2018-09-11T18:26:10.338Z,69.50
2018-09-11T18:31:14.899Z,69.80
2018-09-11T18:36:19.143Z,71.30
2018-09-11T18:41:23.458Z,71.00
2018-09-11T18:46:27.707Z,71.00
2018-09-11T18:51:32.052Z,71.00
2018-09-11T18:56:36.392Z,71.60
2018-09-11T19:01:40.645Z,72.00
2018-09-11T19:06:45.835Z,71.80
2018-09-11T19:11:50.693Z,72.30
2018-09-11T19:16:56.309Z,72.40
2018-09-11T19:22:00.959Z,72.50
2018-09-11T19:27:05.341Z,73.20
2018-09-11T19:32:09.861Z,72.40
2018-09-11T19:37:14.470Z,73.30
2018-09-11T19:42:18.702Z,73.00
2018-09-11T19:47:23.002Z,73.80
2018-09-11T19:52:29.807Z,73.80
2018-09-11T19:57:34.103Z,73.90
2018-09-11T20:02:38.337Z,73.30
2018-09-11T20:07:42.589Z,74.30
2018-09-11T20:12:47.220Z,75.00
2018-09-11T20:17:51.446Z,74.70
2018-09-11T20:22:55.695Z,74.80
2018-09-11T20:27:59.936Z,74.40
2018-09-11T20:33:09.137Z,74.70
2018-09-11T20:38:14.079Z,74.80
2018-09-11T20:43:19.469Z,74.60
2018-09-11T20:48:23.961Z,75.40
2018-09-11T20:53:28.206Z,75.80
2018-09-11T20:58:32.530Z,76.30
2018-09-11T21:03:37.236Z,77.30
2018-09-11T21:08:41.418Z,77.00
2018-09-11T21:13:45.869Z,77.60
2018-09-11T21:18:50.207Z,76.90
2018-09-11T21:23:54.536Z,77.20
2018-09-11T21:28:58.917Z,77.80
2018-09-11T21:34:03.220Z,78.30
2018-09-11T21:39:09.607Z,78.60
2018-09-11T21:44:13.917Z,77.90
2018-09-11T21:49:18.161Z,78.50
2018-09-11T21:54:22.402Z,78.50
2018-09-11T21:59:26.684Z,79.50
2018-09-11T22:04:30.901Z,79.60
2018-09-11T22:09:35.217Z,78.70
2018-09-11T22:14:39.519Z,79.50
2018-09-11T22:19:43.673Z,79.50
2018-09-11T22:24:47.900Z,79.50
2018-09-11T22:29:52.099Z,79.50
2018-09-11T22:34:56.416Z,80.40
2018-09-11T22:40:00.614Z,80.20
2018-09-11T22:45:04.894Z,80.30
2018-09-11T22:50:09.100Z,80.50
2018-09-11T22:55:13.286Z,80.40
2018-09-11T23:00:17.462Z,80.90
2018-09-11T23:05:21.601Z,81.00
2018-09-11T23:10:25.983Z,81.40
2018-09-11T23:15:30.203Z,81.40
2018-09-11T23:20:34.424Z,81.60
2018-09-11T23:25:38.661Z,81.60
2018-09-11T23:30:42.847Z,81.30
2018-09-11T23:35:47.056Z,81.90
2018-09-11T23:40:51.284Z,82.00
2018-09-11T23:45:55.482Z,83.40
2018-09-11T23:50:59.752Z,82.80
2018-09-11T23:56:04.137Z,83.00
